Time;durP1;ratioP1;P1;durP2;ratioP2;P2;SDS_P1;SDS_P2;PMS_P1;PMS_P2;Temp;Humidity;BMP_temperature;BMP_pressure;BME280_temperature;BME280_humidity;BME280_pressure;Samples;Min_cycle;Max_cycle;Signal;HPM_P1;HPM_P2
2021/12/04 00:00:53;;;;;;;84.93;47.65;;;;;;;4.65;100.00;99750.41;5059675;28;20434;-47
2021/12/04 00:03:19;;;;;;;79.50;44.60;;;;;;;4.93;100.00;99803.56;5051443;28;20072;-48
2021/12/04 00:05:52;;;;;;;90.88;46.95;;;;;;;4.83;100.00;99776.84;5051429;28;20037;-48
2021/12/04 00:08:17;;;;;;;85.25;47.33;;;;;;;4.63;100.00;99736.56;5051604;28;20147;-48
2021/12/04 00:10:43;;;;;;;86.60;46.90;;;;;;;4.55;100.00;99723.75;5051686;28;20124;-48
2021/12/04 00:13:08;;;;;;;92.80;48.20;;;;;;;4.56;100.00;99720.22;5051698;28;20510;-50
2021/12/04 00:15:34;;;;;;;89.95;47.22;;;;;;;4.89;100.00;99770.63;5050379;28;20492;-51
2021/12/04 00:18:00;;;;;;;85.45;46.13;;;;;;;4.59;100.00;99720.13;5065397;28;20167;-48
2021/12/04 00:20:30;;;;;;;87.10;46.85;;;;;;;4.84;100.00;99756.84;5051976;28;20032;-52
2021/12/04 00:22:58;;;;;;;88.20;47.03;;;;;;;4.93;100.00;99767.88;5055355;28;20040;-48
2021/12/04 00:25:24;;;;;;;89.45;47.78;;;;;;;4.56;100.00;99691.53;5055471;28;20049;-49
2021/12/04 00:27:49;;;;;;;94.78;48.75;;;;;;;4.95;100.00;99750.47;5055109;28;20044;-50
2021/12/04 00:30:15;;;;;;;90.38;46.30;;;;;;;4.61;100.00;99696.66;5055766;28;20048;-49
2021/12/04 00:32:41;;;;;;;87.47;46.88;;;;;;;4.98;100.00;99766.03;5055371;28;20043;-51
2021/12/04 00:43:21;;;;;;;97.13;47.72;;;;;;;4.60;100.00;99695.78;5054836;28;20079;-48
2021/12/04 00:49:30;;;;;;;93.72;46.67;;;;;;;4.98;100.00;99760.81;5054853;28;20068;-48
2021/12/04 00:51:25;;;;;;;95.75;46.33;;;;;;;4.89;100.00;99750.63;5039323;28;20037;-48
2021/12/04 00:53:54;;;;;;;100.88;50.30;;;;;;;4.94;100.00;99756.56;5049080;28;20120;-49
2021/12/04 00:56:20;;;;;;;107.45;49.00;;;;;;;4.96;100.00;99757.38;5051016;28;20029;-48
2021/12/04 00:58:45;;;;;;;106.82;50.28;;;;;;;4.64;100.00;99702.63;5054291;28;20025;-47
2021/12/04 01:01:11;;;;;;;107.68;48.13;;;;;;;4.99;100.00;99757.28;5053297;28;20082;-48
2021/12/04 01:03:36;;;;;;;107.18;51.42;;;;;;;4.98;100.00;99750.38;5054343;28;20033;-48
2021/12/04 01:06:01;;;;;;;109.43;51.90;;;;;;;4.68;100.00;99703.41;5053023;28;20120;-48
2021/12/04 01:08:27;;;;;;;112.97;52.00;;;;;;;4.98;100.00;99758.22;5053951;28;20039;-47
2021/12/04 01:10:52;;;;;;;118.05;51.22;;;;;;;4.99;100.00;99739.03;5052746;28;20087;-51
2021/12/04 01:13:17;;;;;;;108.43;52.08;;;;;;;4.98;100.00;99742.56;5054022;28;20083;-47
2021/12/04 01:15:44;;;;;;;120.43;51.42;;;;;;;5.01;100.00;99734.66;5053956;28;20036;-49
2021/12/04 01:18:11;;;;;;;116.07;49.88;;;;;;;5.01;100.00;99725.97;5052856;28;20559;-49
2021/12/04 01:20:36;;;;;;;114.00;52.13;;;;;;;4.64;100.00;99654.88;5053725;28;20040;-48
2021/12/04 01:23:03;;;;;;;122.70;52.97;;;;;;;4.90;100.00;99713.19;5035928;28;20543;-51
2021/12/04 01:25:28;;;;;;;126.80;54.83;;;;;;;4.94;100.00;99712.22;5052461;28;20049;-55
2021/12/04 01:27:54;;;;;;;120.10;52.25;;;;;;;5.01;100.00;99715.53;5053641;28;20503;-47
2021/12/04 01:30:19;;;;;;;127.38;53.63;;;;;;;5.00;100.00;99703.38;5052405;28;20502;-47
2021/12/04 01:32:44;;;;;;;125.72;52.63;;;;;;;5.00;100.00;99717.28;5053364;28;20083;-49
2021/12/04 01:35:10;;;;;;;126.45;52.10;;;;;;;4.67;100.00;99660.84;5053689;28;20079;-49
2021/12/04 01:37:35;;;;;;;133.43;52.63;;;;;;;4.98;100.00;99715.63;5053371;28;20033;-48
2021/12/04 01:40:01;;;;;;;134.23;54.63;;;;;;;5.01;100.00;99736.41;5052071;28;20039;-51
2021/12/04 01:42:27;;;;;;;138.05;54.38;;;;;;;4.92;100.00;99702.75;5053278;28;20036;-50
2021/12/04 01:44:52;;;;;;;135.30;53.00;;;;;;;5.02;100.00;99725.09;5053066;28;20052;-51
2021/12/04 01:47:20;;;;;;;142.32;54.78;;;;;;;4.96;100.00;99733.91;5053592;28;20437;-47
2021/12/04 01:49:48;;;;;;;132.60;52.72;;;;;;;4.83;100.00;99697.78;5053526;28;20039;-49
2021/12/04 01:52:15;;;;;;;128.23;53.28;;;;;;;5.01;100.00;99728.56;5053394;28;20545;-49
2021/12/04 01:54:40;;;;;;;132.07;52.70;;;;;;;4.93;100.00;99714.91;5052046;28;20067;-48
2021/12/04 01:57:06;;;;;;;128.85;52.30;;;;;;;5.01;100.00;99723.38;5052973;28;20499;-48
2021/12/04 01:59:31;;;;;;;153.05;54.25;;;;;;;4.70;100.00;99675.56;5051754;28;20041;-49
2021/12/04 02:01:57;;;;;;;149.38;53.05;;;;;;;4.63;100.00;99658.38;5038120;28;20025;-49
2021/12/04 02:04:23;;;;;;;143.50;51.55;;;;;;;4.98;100.00;99710.41;5049268;28;20480;-52
2021/12/04 02:06:48;;;;;;;149.95;53.30;;;;;;;4.96;100.00;99688.75;5053499;28;20036;-48
2021/12/04 02:09:14;;;;;;;146.55;51.13;;;;;;;4.60;100.00;99633.25;5051757;28;20430;-51
2021/12/04 02:11:39;;;;;;;148.35;51.00;;;;;;;5.02;100.00;99697.22;5051604;28;20935;-48
2021/12/04 02:14:06;;;;;;;147.73;53.58;;;;;;;4.64;100.00;99642.66;5052690;28;20029;-49
2021/12/04 02:16:31;;;;;;;149.02;52.85;;;;;;;4.69;100.00;99643.44;5052732;28;20033;-52
2021/12/04 02:18:57;;;;;;;154.55;52.42;;;;;;;4.66;100.00;99645.25;5052806;28;20055;-53
2021/12/04 02:21:22;;;;;;;147.02;50.53;;;;;;;4.62;100.00;99643.63;5052870;28;20396;-50
2021/12/04 02:23:48;;;;;;;149.13;51.25;;;;;;;4.61;100.00;99648.00;5051659;28;20029;-52
2021/12/04 02:26:14;;;;;;;169.98;54.30;;;;;;;4.95;100.00;99698.31;5035368;28;20049;-51
2021/12/04 02:28:43;;;;;;;152.43;52.13;;;;;;;4.64;100.00;99653.09;5051063;28;20056;-49
2021/12/04 02:31:08;;;;;;;173.32;55.30;;;;;;;5.01;100.00;99712.94;5051450;28;20021;-52
2021/12/04 02:33:33;;;;;;;160.40;53.72;;;;;;;4.69;100.00;99645.16;5052451;28;20045;-47
2021/12/04 02:36:02;;;;;;;175.02;57.50;;;;;;;4.66;100.00;99635.69;5052265;28;20029;-47
2021/12/04 02:38:27;;;;;;;168.25;55.40;;;;;;;5.01;100.00;99694.66;5051126;28;20032;-50
2021/12/04 02:40:54;;;;;;;169.70;53.63;;;;;;;4.98;100.00;99700.84;5052343;28;20033;-48
2021/12/04 02:43:20;;;;;;;165.45;54.58;;;;;;;4.74;100.00;99658.94;5050589;28;20068;-48
2021/12/04 02:45:46;;;;;;;173.85;55.13;;;;;;;5.02;100.00;99707.66;5052072;28;20025;-48
2021/12/04 02:48:11;;;;;;;179.73;53.58;;;;;;;5.03;100.00;99706.78;5067797;28;20040;-49
2021/12/04 02:50:37;;;;;;;188.50;54.42;;;;;;;4.67;100.00;99642.59;5052222;28;20068;-49
2021/12/04 02:53:03;;;;;;;179.05;54.60;;;;;;;5.04;100.00;99692.84;5051016;28;20057;-48
2021/12/04 02:55:28;;;;;;;187.00;56.38;;;;;;;4.98;100.00;99682.56;5051994;28;20025;-50
2021/12/04 02:57:54;;;;;;;189.73;56.00;;;;;;;5.06;100.00;99692.78;5034371;28;20099;-49
2021/12/04 03:00:22;;;;;;;196.63;57.30;;;;;;;4.64;100.00;99621.00;5052213;28;20467;-49
2021/12/04 03:02:48;;;;;;;197.45;57.22;;;;;;;5.02;100.00;99696.41;5052228;28;20100;-49
2021/12/04 03:05:14;;;;;;;189.27;60.05;;;;;;;5.03;100.00;99698.09;5050773;28;20029;-51
2021/12/04 03:07:39;;;;;;;206.77;57.53;;;;;;;5.04;100.00;99705.03;5050768;28;20039;-49
2021/12/04 03:10:07;;;;;;;196.75;59.20;;;;;;;5.04;100.00;99697.19;5050483;28;20115;-48
2021/12/04 03:12:33;;;;;;;180.20;57.15;;;;;;;5.06;100.00;99698.00;5034194;28;20121;-50
2021/12/04 03:14:59;;;;;;;194.07;57.83;;;;;;;5.07;100.00;99699.72;5052021;28;20040;-49
2021/12/04 03:17:25;;;;;;;208.48;59.13;;;;;;;4.99;100.00;99678.22;5051915;28;20037;-50
2021/12/04 03:19:52;;;;;;;213.80;57.10;;;;;;;4.74;100.00;99619.81;5051776;28;20036;-48
2021/12/04 03:22:20;;;;;;;179.93;56.55;;;;;;;5.06;100.00;99674.53;5052294;28;20132;-51
2021/12/04 03:24:46;;;;;;;178.43;54.35;;;;;;;4.78;100.00;99611.03;5051487;28;20049;-50
2021/12/04 03:27:13;;;;;;;220.38;59.00;;;;;;;4.74;100.00;99602.44;5052002;28;20029;-50
2021/12/04 03:29:42;;;;;;;181.45;55.50;;;;;;;4.73;100.00;99598.09;5051929;28;20522;-47
2021/12/04 03:32:23;;;;;;;196.50;57.22;;;;;;;4.68;100.00;99588.72;5051846;28;20044;-47
2021/12/04 03:40:36;;;;;;;189.55;53.67;;;;;;;5.15;100.00;99639.50;5051633;28;20055;-51
2021/12/04 03:43:05;;;;;;;195.07;54.30;;;;;;;5.10;100.00;99624.84;5051523;28;20091;-49
2021/12/04 03:45:33;;;;;;;227.73;57.90;;;;;;;4.77;100.00;99570.22;5044062;28;20025;-49
2021/12/04 03:48:06;;;;;;;198.15;55.03;;;;;;;5.18;100.00;99631.56;5045773;28;20029;-50
2021/12/04 03:50:31;;;;;;;193.65;53.13;;;;;;;5.14;100.00;99624.75;5051280;28;20526;-48
2021/12/04 03:52:57;;;;;;;207.27;56.47;;;;;;;5.13;100.00;99642.16;5051450;28;20029;-49
2021/12/04 03:55:25;;;;;;;219.88;54.90;;;;;;;5.15;100.00;99632.53;5052129;28;20479;-51
2021/12/04 03:57:50;;;;;;;215.68;56.30;;;;;;;4.76;100.00;99555.50;5055481;28;20361;-48
2021/12/04 04:00:18;;;;;;;193.82;54.40;;;;;;;5.16;100.00;99616.00;5055301;28;20033;-50
2021/12/04 04:02:43;;;;;;;223.55;56.05;;;;;;;5.14;100.00;99622.97;5039219;28;20033;-48
2021/12/04 04:05:09;;;;;;;173.27;52.80;;;;;;;5.02;100.00;99611.16;5054333;28;20036;-48
2021/12/04 04:07:34;;;;;;;180.65;53.13;;;;;;;5.18;100.00;99632.44;5043517;28;20044;-47
2021/12/04 04:10:00;;;;;;;189.73;53.13;;;;;;;5.13;100.00;99623.03;5050023;28;20044;-50
2021/12/04 04:12:25;;;;;;;179.32;54.13;;;;;;;4.86;100.00;99576.00;5020979;28;20385;-52
2021/12/04 04:14:50;;;;;;;191.43;51.42;;;;;;;5.17;100.00;99624.69;5050485;28;20049;-50
2021/12/04 04:17:16;;;;;;;168.35;50.38;;;;;;;5.16;100.00;99607.31;5043615;28;20037;-50
2021/12/04 04:19:41;;;;;;;180.60;50.03;;;;;;;5.22;100.00;99613.19;5055366;28;20033;-49
2021/12/04 04:22:07;;;;;;;192.52;51.47;;;;;;;4.81;100.00;99554.44;5055188;28;20519;-51
2021/12/04 04:24:33;;;;;;;207.75;52.85;;;;;;;5.14;100.00;99609.13;5054825;28;20045;-49
2021/12/04 04:26:59;;;;;;;177.95;49.63;;;;;;;5.17;100.00;99604.63;5054774;28;20120;-49
2021/12/04 04:29:25;;;;;;;182.02;50.67;;;;;;;4.81;100.00;99544.03;5053529;28;20473;-50
2021/12/04 04:31:52;;;;;;;163.55;47.53;;;;;;;4.79;100.00;99542.34;5054913;28;20033;-52
2021/12/04 04:34:36;;;;;;;180.05;50.13;;;;;;;5.06;100.00;99586.72;5037328;28;20431;-48
2021/12/04 04:40:24;;;;;;;164.07;46.38;;;;;;;5.16;100.00;99607.31;5054432;28;20053;-49
2021/12/04 05:20:51;;;;;;;162.00;44.85;;;;;;;4.76;100.00;99493.75;5034615;28;20056;-48
2021/12/04 05:23:17;;;;;;;169.05;45.58;;;;;;;4.76;100.00;99495.53;5033133;28;20079;-50
2021/12/04 05:25:42;;;;;;;168.52;45.72;;;;;;;5.11;100.00;99542.22;5034239;28;20480;-48
2021/12/04 05:28:08;;;;;;;169.68;47.67;;;;;;;4.88;100.00;99500.34;5033200;28;20092;-51
2021/12/04 05:30:34;;;;;;;168.32;44.33;;;;;;;4.72;100.00;99470.44;5034102;28;20116;-48
2021/12/04 05:33:00;;;;;;;144.52;43.08;;;;;;;5.08;100.00;99537.94;5034199;28;20156;-48
2021/12/04 05:35:25;;;;;;;162.77;42.70;;;;;;;5.08;100.00;99540.56;5033964;28;20029;-49
2021/12/04 05:37:51;;;;;;;157.18;44.75;;;;;;;5.10;100.00;99549.22;5034068;28;20034;-51
2021/12/04 05:40:16;;;;;;;161.68;45.80;;;;;;;5.14;100.00;99567.38;5033702;28;20492;-50
2021/12/04 05:42:43;;;;;;;148.18;43.28;;;;;;;4.87;100.00;99504.72;5032694;28;20189;-51
2021/12/04 05:45:16;;;;;;;149.75;43.35;;;;;;;5.20;100.00;99568.03;5033553;28;20033;-49
2021/12/04 05:47:51;;;;;;;135.65;40.63;;;;;;;5.20;100.00;99556.72;5050150;28;20070;-49
2021/12/04 05:55:26;;;;;;;137.90;43.15;;;;;;;4.85;100.00;99490.88;5053535;28;20415;-52
2021/12/04 05:57:52;;;;;;;140.50;44.83;;;;;;;5.17;100.00;99541.19;5052131;28;20036;-48
2021/12/04 06:00:22;;;;;;;145.82;45.05;;;;;;;5.21;100.00;99541.03;5053103;28;20033;-48
2021/12/04 06:02:47;;;;;;;148.57;45.67;;;;;;;5.23;100.00;99552.28;5053608;28;20040;-51
2021/12/04 06:05:13;;;;;;;151.95;45.28;;;;;;;5.22;100.00;99555.81;5051583;28;20040;-51
2021/12/04 06:07:39;;;;;;;151.60;46.85;;;;;;;5.22;100.00;99555.81;5053058;28;20021;-51
2021/12/04 06:10:06;;;;;;;138.60;45.38;;;;;;;5.23;100.00;99561.84;5051605;28;20029;-50
2021/12/04 06:12:31;;;;;;;148.98;45.83;;;;;;;5.19;100.00;99542.00;5052874;28;20094;-51
2021/12/04 06:14:57;;;;;;;170.75;48.00;;;;;;;5.20;100.00;99538.47;5052809;28;20423;-49
2021/12/04 06:17:23;;;;;;;161.88;46.55;;;;;;;5.21;100.00;99554.09;5052534;28;20052;-52
2021/12/04 06:22:40;;;;;;;168.60;44.65;;;;;;;5.19;100.00;99540.25;5052923;28;20554;-49
2021/12/04 06:25:11;;;;;;;164.73;45.05;;;;;;;5.17;100.00;99536.81;5052735;28;20131;-49
2021/12/04 06:27:36;;;;;;;158.55;44.25;;;;;;;5.20;100.00;99557.59;5052585;28;20032;-52
2021/12/04 06:30:04;;;;;;;176.23;46.33;;;;;;;5.17;100.00;99534.22;5067946;28;20021;-51
2021/12/04 06:32:30;;;;;;;150.98;43.92;;;;;;;4.55;100.00;99426.66;5052700;28;20089;-51
2021/12/04 06:34:55;;;;;;;156.27;41.13;;;;;;;5.14;100.00;99523.03;5052790;28;20068;-50
2021/12/04 06:37:21;;;;;;;194.70;45.60;;;;;;;5.16;100.00;99519.47;5051372;28;20235;-50
2021/12/04 06:39:46;;;;;;;192.07;43.75;;;;;;;5.17;100.00;99523.78;5052304;28;20041;-49
2021/12/04 06:42:12;;;;;;;141.18;40.50;;;;;;;4.76;100.00;99475.50;5051171;28;20112;-47
2021/12/04 06:44:37;;;;;;;148.90;40.95;;;;;;;5.15;100.00;99554.28;5052333;28;20050;-50
2021/12/04 06:47:03;;;;;;;174.95;43.55;;;;;;;4.94;100.00;99502.78;5052211;28;20086;-49
2021/12/04 06:49:33;;;;;;;186.98;42.75;;;;;;;5.16;100.00;99548.16;5052381;28;20048;-51
2021/12/04 06:52:02;;;;;;;188.23;44.70;;;;;;;5.17;100.00;99542.03;5031152;28;20033;-51
2021/12/04 06:54:33;;;;;;;169.45;43.28;;;;;;;5.17;100.00;99546.41;5040485;28;20029;-49
2021/12/04 06:56:58;;;;;;;174.45;42.30;;;;;;;5.16;100.00;99540.34;5052039;28;20033;-49
2021/12/04 06:59:30;;;;;;;193.32;43.92;;;;;;;4.82;100.00;99477.94;5051002;28;20035;-50
2021/12/04 07:01:55;;;;;;;220.00;45.90;;;;;;;5.12;100.00;99533.50;5035830;28;20032;-50
2021/12/04 07:04:21;;;;;;;182.35;41.75;;;;;;;5.08;100.00;99530.13;5052076;28;20472;-48
2021/12/04 07:06:47;;;;;;;130.27;36.10;;;;;;;4.99;100.00;99509.53;5051959;28;20051;-49
2021/12/04 07:09:13;;;;;;;155.40;38.65;;;;;;;5.08;100.00;99529.28;5034253;28;20048;-49
2021/12/04 07:11:38;;;;;;;140.68;37.40;;;;;;;4.73;100.00;99465.16;5051807;28;20120;-49
2021/12/04 07:14:04;;;;;;;129.65;38.28;;;;;;;5.01;100.00;99515.59;5051794;28;20035;-49
2021/12/04 07:16:29;;;;;;;132.63;35.80;;;;;;;4.71;100.00;99460.91;5050761;28;20119;-50
2021/12/04 07:18:55;;;;;;;131.73;35.45;;;;;;;5.02;100.00;99525.09;5051996;28;20036;-53
2021/12/04 07:21:20;;;;;;;119.40;35.65;;;;;;;5.02;100.00;99519.88;5051909;28;20040;-50
2021/12/04 07:23:46;;;;;;;96.18;33.17;;;;;;;4.99;100.00;99524.38;5051713;28;20548;-52
2021/12/04 07:26:11;;;;;;;96.88;34.22;;;;;;;4.65;100.00;99459.34;5051577;28;20045;-50
2021/12/04 07:28:37;;;;;;;98.50;34.33;;;;;;;4.97;100.00;99511.34;5051710;28;20065;-48
2021/12/04 07:31:04;;;;;;;122.07;38.22;;;;;;;4.96;100.00;99508.81;5051748;28;20104;-50
2021/12/04 07:33:30;;;;;;;136.63;38.33;;;;;;;4.96;100.00;99496.59;5051798;28;20040;-50
2021/12/04 07:35:57;;;;;;;130.07;37.35;;;;;;;4.67;100.00;99449.72;5050277;28;20400;-50
2021/12/04 07:38:23;;;;;;;147.48;38.70;;;;;;;4.59;100.00;99428.25;5051719;28;20503;-46
2021/12/04 07:40:48;;;;;;;152.50;39.28;;;;;;;4.90;100.00;99491.56;5040744;28;20116;-49
2021/12/04 07:43:14;;;;;;;146.75;38.15;;;;;;;4.86;100.00;99465.66;5061484;28;20487;-49
2021/12/04 07:45:40;;;;;;;158.38;40.95;;;;;;;4.48;100.00;99399.06;5051718;28;20415;-49
2021/12/04 07:48:05;;;;;;;176.13;40.45;;;;;;;4.92;100.00;99478.50;5051681;28;20363;-50
2021/12/04 07:50:32;;;;;;;167.90;41.95;;;;;;;4.88;100.00;99466.44;5063737;28;20049;-47
2021/12/04 07:52:58;;;;;;;210.95;46.65;;;;;;;4.89;100.00;99476.84;5043617;28;20613;-49
2021/12/04 07:55:24;;;;;;;206.50;46.85;;;;;;;4.48;100.00;99406.88;5051466;28;20029;-51
2021/12/04 07:57:50;;;;;;;190.48;45.58;;;;;;;4.51;100.00;99399.84;5050081;28;20562;-50
2021/12/04 08:00:17;;;;;;;214.32;47.22;;;;;;;4.80;100.00;99453.66;5049968;28;20108;-48
2021/12/04 08:02:43;;;;;;;221.05;45.97;;;;;;;4.82;100.00;99457.06;5050320;28;20037;-49
2021/12/04 08:05:09;;;;;;;211.15;44.22;;;;;;;4.80;100.00;99458.88;5063665;28;20092;-48
2021/12/04 08:07:35;;;;;;;187.82;41.88;;;;;;;4.76;100.00;99459.03;5048756;28;20108;-49
2021/12/04 08:10:01;;;;;;;170.25;37.95;;;;;;;4.55;100.00;99424.88;5051218;28;20037;-50
2021/12/04 08:12:27;;;;;;;152.85;36.08;;;;;;;4.72;100.00;99458.28;5051118;28;20079;-50
2021/12/04 08:14:53;;;;;;;153.38;37.47;;;;;;;4.77;100.00;99463.34;5051697;28;20120;-48
2021/12/04 08:17:20;;;;;;;143.73;34.65;;;;;;;4.69;100.00;99458.38;5050124;28;20037;-50
2021/12/04 08:19:45;;;;;;;115.20;28.60;;;;;;;4.60;100.00;99452.56;5033260;28;20033;-48
2021/12/04 08:22:11;;;;;;;97.85;25.63;;;;;;;4.65;100.00;99464.56;5030465;28;20079;-47
2021/12/04 08:24:36;;;;;;;110.85;26.02;;;;;;;4.70;100.00;99488.72;5022606;28;20053;-47
2021/12/04 08:27:03;;;;;;;92.25;22.95;;;;;;;4.71;100.00;99500.00;5051061;28;20040;-47
2021/12/04 08:29:28;;;;;;;70.53;21.25;;;;;;;4.74;100.00;99499.91;5049669;28;20044;-49
2021/12/04 08:31:54;;;;;;;78.93;24.15;;;;;;;4.75;100.00;99497.28;5034084;28;20021;-48
2021/12/04 08:34:19;;;;;;;90.35;25.38;;;;;;;4.80;100.00;99495.38;5051031;28;20029;-48
2021/12/04 08:36:46;;;;;;;97.47;24.98;;;;;;;4.47;100.00;99431.22;5050932;28;20029;-51
2021/12/04 08:39:11;;;;;;;140.60;56.22;;;;;;;4.81;100.00;99497.09;5049512;28;20423;-48
2021/12/04 08:41:37;;;;;;;100.90;28.52;;;;;;;4.81;100.00;99484.06;5044659;28;20117;-51
2021/12/04 08:44:03;;;;;;;92.78;28.05;;;;;;;4.84;100.00;99486.56;5054565;28;20021;-49
2021/12/04 08:46:29;;;;;;;88.68;27.00;;;;;;;4.88;100.00;99476.88;5054293;28;20033;-48
2021/12/04 08:48:54;;;;;;;89.50;27.23;;;;;;;4.54;100.00;99419.72;5054937;28;20033;-48
2021/12/04 08:51:21;;;;;;;89.95;26.33;;;;;;;4.79;100.00;99462.38;5054452;28;20507;-45
2021/12/04 08:53:50;;;;;;;89.00;27.30;;;;;;;4.88;100.00;99466.44;5053079;28;20459;-47
2021/12/04 08:56:16;;;;;;;88.72;26.70;;;;;;;4.53;100.00;99407.59;5052771;28;20150;-47
2021/12/04 08:58:42;;;;;;;97.35;29.20;;;;;;;4.85;100.00;99440.47;5053313;28;20446;-48
2021/12/04 09:01:16;;;;;;;85.28;28.50;;;;;;;4.58;100.00;99397.03;5051854;28;20028;-47
2021/12/04 09:03:45;;;;;;;85.15;29.38;;;;;;;4.94;100.00;99450.63;5053899;28;20029;-48
2021/12/04 09:06:10;;;;;;;104.65;30.20;;;;;;;4.96;100.00;99454.06;5054005;28;20021;-49
2021/12/04 09:08:37;;;;;;;88.05;28.33;;;;;;;4.58;100.00;99390.09;5054031;28;20048;-48
2021/12/04 09:11:12;;;;;;;93.97;30.10;;;;;;;4.62;100.00;99388.22;5054370;28;20040;-50
2021/12/04 09:13:38;;;;;;;96.38;31.08;;;;;;;5.02;100.00;99446.03;5054091;28;20025;-50
2021/12/04 09:16:04;;;;;;;94.38;30.33;;;;;;;5.05;100.00;99449.38;5053899;28;20487;-50
2021/12/04 09:18:30;;;;;;;96.80;29.27;;;;;;;4.70;100.00;99370.59;5053822;28;20159;-46
2021/12/04 09:20:56;;;;;;;91.88;32.03;;;;;;;5.03;100.00;99432.06;5048372;28;20517;-47
2021/12/04 09:23:24;;;;;;;106.97;31.63;;;;;;;5.05;100.00;99433.72;5052617;28;20037;-50
2021/12/04 09:25:56;;;;;;;97.18;32.17;;;;;;;5.15;100.00;99446.47;5029788;28;20057;-47
2021/12/04 09:28:25;;;;;;;94.53;30.80;;;;;;;5.13;100.00;99450.91;5054115;28;20050;-46
2021/12/04 09:31:16;;;;;;;87.47;31.90;;;;;;;5.17;100.00;99444.69;5052701;28;20065;-46
2021/12/04 10:01:12;;;;;;;85.70;33.58;;;;;;;5.39;100.00;99411.75;5053182;28;20091;-49
2021/12/04 10:18:26;;;;;;;105.20;38.95;;;;;;;5.67;100.00;99384.63;4990731;28;20054;-47
2021/12/04 10:23:03;;;;;;;106.45;38.45;;;;;;;5.65;100.00;99360.34;5032290;28;20048;-49
2021/12/04 10:33:27;;;;;;;103.30;38.85;;;;;;;5.51;100.00;99306.94;5033024;28;20600;-48
2021/12/04 10:35:53;;;;;;;108.97;39.35;;;;;;;5.80;100.00;99366.78;5031287;28;20120;-47
2021/12/04 10:38:24;;;;;;;100.25;37.63;;;;;;;5.83;100.00;99361.47;5047923;28;20037;-48
2021/12/04 10:40:50;;;;;;;107.63;37.67;;;;;;;5.83;100.00;99355.38;5033049;28;20041;-47
2021/12/04 10:43:23;;;;;;;94.53;36.75;;;;;;;5.59;100.00;99313.59;5032816;28;20033;-48
2021/12/04 10:45:53;;;;;;;82.30;35.03;;;;;;;5.60;100.00;99323.09;5032679;28;20074;-48
2021/12/04 10:48:23;;;;;;;83.93;33.40;;;;;;;5.84;100.00;99367.53;5031594;28;20123;-48
2021/12/04 10:53:35;;;;;;;69.82;32.08;;;;;;;5.44;100.00;99321.09;5032595;28;20045;-48
2021/12/04 10:59:01;;;;;;;74.25;32.80;;;;;;;5.35;100.00;99306.63;5047821;28;20119;-50
2021/12/04 11:04:11;;;;;;;71.28;30.08;;;;;;;5.66;100.00;99354.22;5032075;28;20473;-48
2021/12/04 11:29:00;;;;;;;110.47;38.75;;;;;;;5.28;100.00;99260.81;5032474;28;20037;-48
2021/12/04 11:37:02;;;;;;;110.20;38.05;;;;;;;5.54;100.00;99275.53;5032253;28;20047;-48
2021/12/04 11:44:30;;;;;;;130.52;39.67;;;;;;;5.80;100.00;99296.28;5032149;28;20540;-49
2021/12/04 11:46:56;;;;;;;130.07;40.80;;;;;;;5.63;100.00;99256.91;5046661;28;20057;-47
2021/12/04 11:49:25;;;;;;;133.95;41.17;;;;;;;5.44;100.00;99214.97;5032018;28;20048;-49
2021/12/04 11:52:01;;;;;;;134.82;43.50;;;;;;;5.79;100.00;99265.00;5030756;28;20033;-49
2021/12/04 11:54:43;;;;;;;134.57;39.00;;;;;;;5.51;100.00;99219.06;5031949;28;20036;-47
2021/12/04 11:57:11;;;;;;;130.48;41.40;;;;;;;5.86;100.00;99275.19;5030333;28;20034;-48
2021/12/04 11:59:39;;;;;;;122.90;39.10;;;;;;;5.87;100.00;99284.72;5031855;28;20064;-47
2021/12/04 12:02:09;;;;;;;114.35;41.10;;;;;;;5.45;100.00;99208.88;5031985;28;20048;-50
2021/12/04 12:04:40;;;;;;;123.43;38.97;;;;;;;5.22;100.00;99187.13;5031838;28;20030;-48
2021/12/04 12:07:19;;;;;;;114.63;40.47;;;;;;;5.81;100.00;99300.59;5030626;28;20116;-48
2021/12/04 12:09:47;;;;;;;130.20;38.92;;;;;;;5.55;100.00;99254.56;5032037;28;20037;-51
2021/12/04 12:12:14;;;;;;;124.63;39.22;;;;;;;5.74;100.00;99291.28;5030094;28;20025;-52
2021/12/04 12:14:48;;;;;;;121.53;38.25;;;;;;;5.69;100.00;99299.28;5040443;28;20066;-52
2021/12/04 12:17:14;;;;;;;108.53;37.58;;;;;;;5.66;100.00;99281.13;5032852;28;20095;-52
2021/12/04 12:19:49;;;;;;;121.05;39.05;;;;;;;5.36;100.00;99218.78;5045078;28;20035;-48
2021/12/04 12:25:39;;;;;;;106.18;37.85;;;;;;;5.67;100.00;99274.16;5066516;28;20057;-50
2021/12/04 12:33:58;;;;;;;106.03;36.70;;;;;;;5.37;100.00;99195.22;5068068;28;20134;-52
2021/12/04 12:36:28;;;;;;;112.68;36.00;;;;;;;5.37;100.00;99195.22;5050240;28;20462;-48
2021/12/04 12:38:55;;;;;;;98.18;33.50;;;;;;;5.75;100.00;99253.81;5053501;28;20491;-48
2021/12/04 12:41:41;;;;;;;87.88;31.15;;;;;;;5.76;100.00;99257.28;5069083;28;20498;-49
2021/12/04 12:44:23;;;;;;;85.97;29.77;;;;;;;5.59;100.00;99230.06;5054621;28;20114;-49
2021/12/04 12:46:54;;;;;;;69.55;25.75;;;;;;;5.59;100.00;99218.78;5053528;28;20404;-49
2021/12/04 12:49:38;;;;;;;68.68;26.20;;;;;;;5.80;100.00;99258.88;5054592;28;20059;-50
2021/12/04 12:52:22;;;;;;;73.78;27.08;;;;;;;5.81;100.00;99248.38;5054749;28;20029;-53
2021/12/04 12:54:59;;;;;;;75.35;26.10;;;;;;;5.83;100.00;99262.22;5054778;28;20063;-51
2021/12/04 12:57:31;;;;;;;64.95;24.83;;;;;;;5.49;100.00;99197.38;5054656;28;20036;-49
2021/12/04 13:12:07;;;;;;;39.35;19.40;;;;;;;5.78;100.00;99243.25;5055247;28;20048;-50
2021/12/04 13:14:37;;;;;;;43.33;19.60;;;;;;;5.85;100.00;99268.28;5054585;28;20072;-50
2021/12/04 13:17:31;;;;;;;37.85;17.75;;;;;;;5.81;100.00;99263.19;5052980;28;20048;-48
2021/12/04 13:19:57;;;;;;;46.38;18.27;;;;;;;5.42;100.00;99208.13;5054199;28;20048;-48
2021/12/04 13:22:31;;;;;;;38.80;16.38;;;;;;;5.76;100.00;99259.91;5053053;28;20039;-50
2021/12/04 13:24:58;;;;;;;31.58;14.20;;;;;;;5.77;100.00;99257.25;5069398;28;20507;-50
2021/12/04 13:29:59;;;;;;;30.23;12.60;;;;;;;5.64;100.00;99246.41;5054435;28;20045;-48
2021/12/04 13:32:32;;;;;;;27.40;9.05;;;;;;;5.34;100.00;99203.16;5054065;28;20102;-47
2021/12/04 13:35:13;;;;;;;9.80;4.78;;;;;;;5.69;100.00;99273.16;5054050;28;20652;-50
2021/12/04 13:37:40;;;;;;;6.10;2.63;;;;;;;5.51;100.00;99239.94;5054164;28;20033;-49
2021/12/04 13:40:09;;;;;;;7.22;2.92;;;;;;;5.60;100.00;99257.03;5069350;28;20049;-47
2021/12/04 13:42:35;;;;;;;7.03;1.90;;;;;;;5.21;100.00;99209.75;5054038;28;20033;-52
2021/12/04 13:45:03;;;;;;;9.50;2.00;;;;;;;5.64;100.00;99271.66;5053967;28;20036;-49
2021/12/04 13:47:29;;;;;;;7.68;1.52;;;;;;;5.46;100.00;99248.84;5069065;28;20021;-52
2021/12/04 13:49:55;;;;;;;6.28;1.13;;;;;;;5.63;100.00;99280.41;5069134;28;20063;-48
2021/12/04 13:52:21;;;;;;;8.05;0.98;;;;;;;5.64;100.00;99279.47;5053869;28;20044;-51
2021/12/04 13:54:53;;;;;;;6.60;0.90;;;;;;;5.28;100.00;99221.69;5053746;28;20033;-51
2021/12/04 13:57:19;;;;;;;3.15;0.93;;;;;;;5.64;100.00;99275.13;5053652;28;20033;-47
2021/12/04 13:59:44;;;;;;;3.95;0.95;;;;;;;5.19;100.00;99208.97;5053519;28;20447;-49
2021/12/04 14:02:22;;;;;;;5.40;0.70;;;;;;;5.58;100.00;99277.94;5053565;28;20447;-52
2021/12/04 14:04:57;;;;;;;3.97;0.80;;;;;;;5.61;100.00;99297.88;5053621;28;20025;-50
2021/12/04 14:07:22;;;;;;;3.25;0.95;;;;;;;5.31;100.00;99231.97;5068973;28;20051;-47
2021/12/04 14:09:48;;;;;;;6.47;1.10;;;;;;;5.57;100.00;99278.84;5053501;28;20037;-48
2021/12/04 14:12:13;;;;;;;2.53;1.05;;;;;;;5.58;100.00;99280.56;5068818;28;20029;-48
2021/12/04 14:14:38;;;;;;;2.47;0.82;;;;;;;5.58;100.00;99285.78;5051968;28;20058;-47
2021/12/04 14:17:13;;;;;;;2.78;1.13;;;;;;;5.25;100.00;99234.84;5053239;28;20037;-56